sensor_id;sensor_type;location;lat;lon;timestamp;temperature;humidity
70184;DHT22;57554;51.546;6.776;2022-08-21T00:02:18;18.90;58.60
70184;DHT22;57554;51.546;6.776;2022-08-21T00:04:44;18.80;58.80
70184;DHT22;57554;51.546;6.776;2022-08-21T00:07:11;18.80;58.80
70184;DHT22;57554;51.546;6.776;2022-08-21T00:09:36;18.70;59.00
70184;DHT22;57554;51.546;6.776;2022-08-21T00:12:03;18.70;59.10
70184;DHT22;57554;51.546;6.776;2022-08-21T00:14:29;18.60;59.20
70184;DHT22;57554;51.546;6.776;2022-08-21T00:16:54;18.60;59.20
70184;DHT22;57554;51.546;6.776;2022-08-21T00:19:20;18.60;59.40
70184;DHT22;57554;51.546;6.776;2022-08-21T00:21:50;18.50;59.50
70184;DHT22;57554;51.546;6.776;2022-08-21T00:24:17;18.50;59.40
70184;DHT22;57554;51.546;6.776;2022-08-21T00:26:43;18.50;59.50
70184;DHT22;57554;51.546;6.776;2022-08-21T00:29:08;18.50;59.60
70184;DHT22;57554;51.546;6.776;2022-08-21T00:31:35;18.40;59.60
70184;DHT22;57554;51.546;6.776;2022-08-21T00:34:01;18.40;59.60
70184;DHT22;57554;51.546;6.776;2022-08-21T00:36:27;18.30;59.80
70184;DHT22;57554;51.546;6.776;2022-08-21T00:38:53;18.30;59.90
70184;DHT22;57554;51.546;6.776;2022-08-21T00:41:18;18.20;59.90
70184;DHT22;57554;51.546;6.776;2022-08-21T00:43:44;18.10;60.10
70184;DHT22;57554;51.546;6.776;2022-08-21T00:46:10;18.10;60.20
70184;DHT22;57554;51.546;6.776;2022-08-21T00:48:36;18.00;60.30
70184;DHT22;57554;51.546;6.776;2022-08-21T00:51:05;18.00;60.40
70184;DHT22;57554;51.546;6.776;2022-08-21T00:53:33;17.90;60.60
70184;DHT22;57554;51.546;6.776;2022-08-21T00:56:00;17.90;60.60
70184;DHT22;57554;51.546;6.776;2022-08-21T00:58:29;17.90;60.80
70184;DHT22;57554;51.546;6.776;2022-08-21T01:00:57;17.80;60.80
70184;DHT22;57554;51.546;6.776;2022-08-21T01:03:25;17.80;60.80
70184;DHT22;57554;51.546;6.776;2022-08-21T01:05:51;17.80;60.90
70184;DHT22;57554;51.546;6.776;2022-08-21T01:08:18;17.70;61.00
70184;DHT22;57554;51.546;6.776;2022-08-21T01:10:44;17.70;61.10
70184;DHT22;57554;51.546;6.776;2022-08-21T01:13:14;17.70;61.10
70184;DHT22;57554;51.546;6.776;2022-08-21T01:15:45;17.70;61.20
70184;DHT22;57554;51.546;6.776;2022-08-21T01:18:12;17.60;61.30
70184;DHT22;57554;51.546;6.776;2022-08-21T01:20:40;17.60;61.30
70184;DHT22;57554;51.546;6.776;2022-08-21T01:23:07;17.50;61.30
70184;DHT22;57554;51.546;6.776;2022-08-21T01:25:33;17.50;61.40
70184;DHT22;57554;51.546;6.776;2022-08-21T01:28:04;17.50;61.40
70184;DHT22;57554;51.546;6.776;2022-08-21T01:30:35;17.40;61.50
70184;DHT22;57554;51.546;6.776;2022-08-21T01:33:02;17.40;61.60
70184;DHT22;57554;51.546;6.776;2022-08-21T01:35:28;17.30;61.80
70184;DHT22;57554;51.546;6.776;2022-08-21T01:37:54;17.30;61.80
70184;DHT22;57554;51.546;6.776;2022-08-21T01:40:19;17.30;61.90
70184;DHT22;57554;51.546;6.776;2022-08-21T01:42:46;17.30;61.90
70184;DHT22;57554;51.546;6.776;2022-08-21T01:45:13;17.20;61.90
70184;DHT22;57554;51.546;6.776;2022-08-21T01:47:39;17.20;61.90
70184;DHT22;57554;51.546;6.776;2022-08-21T01:50:08;17.20;62.00
70184;DHT22;57554;51.546;6.776;2022-08-21T01:52:35;17.20;62.20
70184;DHT22;57554;51.546;6.776;2022-08-21T01:55:00;17.10;62.20
70184;DHT22;57554;51.546;6.776;2022-08-21T01:57:26;17.10;62.30
70184;DHT22;57554;51.546;6.776;2022-08-21T01:59:52;17.10;62.30
70184;DHT22;57554;51.546;6.776;2022-08-21T02:02:18;17.10;62.30
70184;DHT22;57554;51.546;6.776;2022-08-21T02:04:43;17.00;62.40
70184;DHT22;57554;51.546;6.776;2022-08-21T02:07:09;17.00;62.50
70184;DHT22;57554;51.546;6.776;2022-08-21T02:09:35;17.00;62.40
70184;DHT22;57554;51.546;6.776;2022-08-21T02:12:00;16.90;62.40
70184;DHT22;57554;51.546;6.776;2022-08-21T02:14:26;16.90;62.60
70184;DHT22;57554;51.546;6.776;2022-08-21T02:16:52;16.80;62.60
70184;DHT22;57554;51.546;6.776;2022-08-21T02:19:18;16.80;62.60
70184;DHT22;57554;51.546;6.776;2022-08-21T02:21:44;16.80;62.70
70184;DHT22;57554;51.546;6.776;2022-08-21T02:24:10;16.80;62.80
70184;DHT22;57554;51.546;6.776;2022-08-21T02:26:36;16.70;62.90
70184;DHT22;57554;51.546;6.776;2022-08-21T02:29:03;16.70;63.00
70184;DHT22;57554;51.546;6.776;2022-08-21T02:31:28;16.70;63.20
70184;DHT22;57554;51.546;6.776;2022-08-21T02:33:54;16.70;63.20
70184;DHT22;57554;51.546;6.776;2022-08-21T02:36:20;16.70;63.30
70184;DHT22;57554;51.546;6.776;2022-08-21T02:38:45;16.70;63.30
70184;DHT22;57554;51.546;6.776;2022-08-21T02:41:14;16.70;63.40
70184;DHT22;57554;51.546;6.776;2022-08-21T02:43:41;16.70;63.50
70184;DHT22;57554;51.546;6.776;2022-08-21T02:46:08;16.70;63.40
70184;DHT22;57554;51.546;6.776;2022-08-21T02:48:35;16.60;63.50
70184;DHT22;57554;51.546;6.776;2022-08-21T02:51:19;16.60;63.40
70184;DHT22;57554;51.546;6.776;2022-08-21T02:53:46;16.60;63.40
70184;DHT22;57554;51.546;6.776;2022-08-21T02:56:15;16.60;63.50
70184;DHT22;57554;51.546;6.776;2022-08-21T02:58:44;16.50;63.50
70184;DHT22;57554;51.546;6.776;2022-08-21T03:01:11;16.50;63.50
70184;DHT22;57554;51.546;6.776;2022-08-21T03:03:40;16.50;63.60
70184;DHT22;57554;51.546;6.776;2022-08-21T03:06:07;16.50;63.80
70184;DHT22;57554;51.546;6.776;2022-08-21T03:08:33;16.50;63.80
70184;DHT22;57554;51.546;6.776;2022-08-21T03:10:59;16.50;63.90
70184;DHT22;57554;51.546;6.776;2022-08-21T03:13:27;16.50;63.90
70184;DHT22;57554;51.546;6.776;2022-08-21T03:15:54;16.50;63.90
70184;DHT22;57554;51.546;6.776;2022-08-21T03:18:19;16.50;63.80
70184;DHT22;57554;51.546;6.776;2022-08-21T03:20:46;16.40;63.80
70184;DHT22;57554;51.546;6.776;2022-08-21T03:23:13;16.30;63.90
70184;DHT22;57554;51.546;6.776;2022-08-21T03:25:39;16.30;64.00
70184;DHT22;57554;51.546;6.776;2022-08-21T03:28:07;16.20;64.10
70184;DHT22;57554;51.546;6.776;2022-08-21T03:30:33;16.20;64.20
70184;DHT22;57554;51.546;6.776;2022-08-21T03:32:59;16.20;64.20
70184;DHT22;57554;51.546;6.776;2022-08-21T03:35:26;16.10;64.20
70184;DHT22;57554;51.546;6.776;2022-08-21T03:37:53;16.10;64.30
70184;DHT22;57554;51.546;6.776;2022-08-21T03:40:20;16.10;64.30
70184;DHT22;57554;51.546;6.776;2022-08-21T03:42:46;16.10;64.30
70184;DHT22;57554;51.546;6.776;2022-08-21T03:45:13;16.00;64.30
70184;DHT22;57554;51.546;6.776;2022-08-21T03:47:39;16.10;64.30
70184;DHT22;57554;51.546;6.776;2022-08-21T03:50:15;16.00;64.40
70184;DHT22;57554;51.546;6.776;2022-08-21T03:52:42;16.00;64.40
70184;DHT22;57554;51.546;6.776;2022-08-21T03:55:08;16.00;64.60
70184;DHT22;57554;51.546;6.776;2022-08-21T03:57:33;16.00;64.60
70184;DHT22;57554;51.546;6.776;2022-08-21T03:59:59;16.00;64.50
70184;DHT22;57554;51.546;6.776;2022-08-21T04:02:24;16.00;64.50
70184;DHT22;57554;51.546;6.776;2022-08-21T04:04:50;15.90;64.50
70184;DHT22;57554;51.546;6.776;2022-08-21T04:07:16;15.90;64.50
70184;DHT22;57554;51.546;6.776;2022-08-21T04:09:43;16.00;64.60
70184;DHT22;57554;51.546;6.776;2022-08-21T04:12:09;16.00;64.70
70184;DHT22;57554;51.546;6.776;2022-08-21T04:14:34;15.90;64.70
70184;DHT22;57554;51.546;6.776;2022-08-21T04:17:00;15.90;64.80
70184;DHT22;57554;51.546;6.776;2022-08-21T04:19:25;15.90;64.90
70184;DHT22;57554;51.546;6.776;2022-08-21T04:21:51;15.90;64.80
70184;DHT22;57554;51.546;6.776;2022-08-21T04:24:17;15.90;64.80
70184;DHT22;57554;51.546;6.776;2022-08-21T04:26:42;15.90;64.70
70184;DHT22;57554;51.546;6.776;2022-08-21T04:29:08;15.90;64.80
70184;DHT22;57554;51.546;6.776;2022-08-21T04:31:35;15.90;65.10
70184;DHT22;57554;51.546;6.776;2022-08-21T04:34:03;16.00;65.40
70184;DHT22;57554;51.546;6.776;2022-08-21T04:36:30;16.00;65.50
70184;DHT22;57554;51.546;6.776;2022-08-21T04:38:56;16.00;65.50
70184;DHT22;57554;51.546;6.776;2022-08-21T04:41:22;16.00;65.60
70184;DHT22;57554;51.546;6.776;2022-08-21T04:43:47;16.00;65.60
70184;DHT22;57554;51.546;6.776;2022-08-21T04:46:13;16.00;65.60
70184;DHT22;57554;51.546;6.776;2022-08-21T04:48:38;16.10;65.60
70184;DHT22;57554;51.546;6.776;2022-08-21T04:51:16;16.10;65.90
70184;DHT22;57554;51.546;6.776;2022-08-21T04:53:48;16.10;66.30
70184;DHT22;57554;51.546;6.776;2022-08-21T04:56:21;16.10;66.30
70184;DHT22;57554;51.546;6.776;2022-08-21T04:58:47;16.20;66.00
70184;DHT22;57554;51.546;6.776;2022-08-21T05:01:18;16.20;65.80
70184;DHT22;57554;51.546;6.776;2022-08-21T05:03:46;16.20;65.80
70184;DHT22;57554;51.546;6.776;2022-08-21T05:06:14;16.20;65.60
70184;DHT22;57554;51.546;6.776;2022-08-21T05:08:41;16.20;65.50
70184;DHT22;57554;51.546;6.776;2022-08-21T05:11:09;16.20;65.60
70184;DHT22;57554;51.546;6.776;2022-08-21T05:13:35;16.20;65.80
70184;DHT22;57554;51.546;6.776;2022-08-21T05:16:00;16.30;66.20
70184;DHT22;57554;51.546;6.776;2022-08-21T05:18:26;16.30;66.30
70184;DHT22;57554;51.546;6.776;2022-08-21T05:20:52;16.40;66.60
70184;DHT22;57554;51.546;6.776;2022-08-21T05:23:17;16.40;66.60
70184;DHT22;57554;51.546;6.776;2022-08-21T05:25:43;16.50;66.50
70184;DHT22;57554;51.546;6.776;2022-08-21T05:28:10;16.50;66.60
70184;DHT22;57554;51.546;6.776;2022-08-21T05:30:36;16.50;66.60
70184;DHT22;57554;51.546;6.776;2022-08-21T05:33:04;16.60;66.60
70184;DHT22;57554;51.546;6.776;2022-08-21T05:35:30;16.60;66.60
70184;DHT22;57554;51.546;6.776;2022-08-21T05:37:56;16.70;66.70
70184;DHT22;57554;51.546;6.776;2022-08-21T05:40:23;16.70;67.00
70184;DHT22;57554;51.546;6.776;2022-08-21T05:42:52;16.80;67.20
70184;DHT22;57554;51.546;6.776;2022-08-21T05:45:19;16.80;67.30
70184;DHT22;57554;51.546;6.776;2022-08-21T05:47:44;16.90;67.70
70184;DHT22;57554;51.546;6.776;2022-08-21T05:50:10;17.00;68.10
70184;DHT22;57554;51.546;6.776;2022-08-21T05:52:36;17.20;68.20
70184;DHT22;57554;51.546;6.776;2022-08-21T05:55:03;17.40;68.30
70184;DHT22;57554;51.546;6.776;2022-08-21T05:57:29;17.60;68.40
70184;DHT22;57554;51.546;6.776;2022-08-21T05:59:54;17.90;68.40
70184;DHT22;57554;51.546;6.776;2022-08-21T06:02:21;18.10;68.30
70184;DHT22;57554;51.546;6.776;2022-08-21T06:04:47;18.30;68.20
70184;DHT22;57554;51.546;6.776;2022-08-21T06:07:13;18.50;68.10
70184;DHT22;57554;51.546;6.776;2022-08-21T06:09:38;18.60;67.60
70184;DHT22;57554;51.546;6.776;2022-08-21T06:12:05;18.80;67.20
70184;DHT22;57554;51.546;6.776;2022-08-21T06:14:31;19.00;66.60
70184;DHT22;57554;51.546;6.776;2022-08-21T06:17:04;19.10;66.50
70184;DHT22;57554;51.546;6.776;2022-08-21T06:19:30;19.30;66.00
70184;DHT22;57554;51.546;6.776;2022-08-21T06:21:56;19.40;65.60
70184;DHT22;57554;51.546;6.776;2022-08-21T06:24:21;19.60;64.90
70184;DHT22;57554;51.546;6.776;2022-08-21T06:26:47;19.70;64.20
70184;DHT22;57554;51.546;6.776;2022-08-21T06:29:13;19.80;63.70
70184;DHT22;57554;51.546;6.776;2022-08-21T06:31:43;19.80;63.20
70184;DHT22;57554;51.546;6.776;2022-08-21T06:34:09;19.80;62.30
70184;DHT22;57554;51.546;6.776;2022-08-21T06:36:35;19.80;61.60
70184;DHT22;57554;51.546;6.776;2022-08-21T06:39:01;19.80;61.10
70184;DHT22;57554;51.546;6.776;2022-08-21T06:41:26;19.80;60.50
70184;DHT22;57554;51.546;6.776;2022-08-21T06:43:53;19.80;60.10
70184;DHT22;57554;51.546;6.776;2022-08-21T06:46:19;19.80;59.80
70184;DHT22;57554;51.546;6.776;2022-08-21T06:48:45;19.90;59.40
70184;DHT22;57554;51.546;6.776;2022-08-21T06:51:11;19.90;58.90
70184;DHT22;57554;51.546;6.776;2022-08-21T06:53:37;19.90;58.70
70184;DHT22;57554;51.546;6.776;2022-08-21T06:56:03;20.00;58.40
70184;DHT22;57554;51.546;6.776;2022-08-21T06:58:28;20.00;58.90
70184;DHT22;57554;51.546;6.776;2022-08-21T07:00:54;20.20;58.50
70184;DHT22;57554;51.546;6.776;2022-08-21T07:03:28;20.30;57.70
70184;DHT22;57554;51.546;6.776;2022-08-21T07:05:54;20.40;57.70
70184;DHT22;57554;51.546;6.776;2022-08-21T07:08:22;20.60;57.00
70184;DHT22;57554;51.546;6.776;2022-08-21T07:10:48;20.60;56.50
70184;DHT22;57554;51.546;6.776;2022-08-21T07:13:15;20.70;56.00
70184;DHT22;57554;51.546;6.776;2022-08-21T07:15:40;20.60;55.60
70184;DHT22;57554;51.546;6.776;2022-08-21T07:18:06;20.60;55.30
70184;DHT22;57554;51.546;6.776;2022-08-21T07:20:32;20.60;55.50
70184;DHT22;57554;51.546;6.776;2022-08-21T07:23:01;20.60;55.70
70184;DHT22;57554;51.546;6.776;2022-08-21T07:25:27;20.70;55.40
70184;DHT22;57554;51.546;6.776;2022-08-21T07:27:53;20.80;55.20
70184;DHT22;57554;51.546;6.776;2022-08-21T07:30:21;21.00;55.20
70184;DHT22;57554;51.546;6.776;2022-08-21T07:32:47;21.10;54.20
70184;DHT22;57554;51.546;6.776;2022-08-21T07:35:15;21.10;53.50
70184;DHT22;57554;51.546;6.776;2022-08-21T07:37:40;21.10;53.40
70184;DHT22;57554;51.546;6.776;2022-08-21T07:40:06;21.10;53.10
70184;DHT22;57554;51.546;6.776;2022-08-21T07:42:32;21.20;53.60
70184;DHT22;57554;51.546;6.776;2022-08-21T07:44:58;21.30;53.40
70184;DHT22;57554;51.546;6.776;2022-08-21T07:47:23;21.50;52.20
70184;DHT22;57554;51.546;6.776;2022-08-21T07:49:49;21.60;52.60
70184;DHT22;57554;51.546;6.776;2022-08-21T07:52:14;21.70;52.30
70184;DHT22;57554;51.546;6.776;2022-08-21T07:54:40;21.80;51.60
70184;DHT22;57554;51.546;6.776;2022-08-21T07:57:06;21.80;51.70
70184;DHT22;57554;51.546;6.776;2022-08-21T07:59:31;22.00;51.30
70184;DHT22;57554;51.546;6.776;2022-08-21T08:01:57;22.10;51.00
70184;DHT22;57554;51.546;6.776;2022-08-21T08:04:23;22.20;50.90
70184;DHT22;57554;51.546;6.776;2022-08-21T08:06:48;22.40;50.20
70184;DHT22;57554;51.546;6.776;2022-08-21T08:09:14;22.50;49.70
70184;DHT22;57554;51.546;6.776;2022-08-21T08:11:41;22.50;49.50
70184;DHT22;57554;51.546;6.776;2022-08-21T08:14:09;22.50;49.00
70184;DHT22;57554;51.546;6.776;2022-08-21T08:16:35;22.40;48.90
70184;DHT22;57554;51.546;6.776;2022-08-21T08:19:01;22.40;48.50
70184;DHT22;57554;51.546;6.776;2022-08-21T08:21:26;22.40;48.50
70184;DHT22;57554;51.546;6.776;2022-08-21T08:23:52;22.40;48.60
70184;DHT22;57554;51.546;6.776;2022-08-21T08:26:18;22.50;48.40
70184;DHT22;57554;51.546;6.776;2022-08-21T08:28:44;22.60;48.50
70184;DHT22;57554;51.546;6.776;2022-08-21T08:31:12;22.80;48.20
70184;DHT22;57554;51.546;6.776;2022-08-21T08:33:37;23.00;47.50
70184;DHT22;57554;51.546;6.776;2022-08-21T08:36:03;23.00;47.30
70184;DHT22;57554;51.546;6.776;2022-08-21T08:38:29;23.10;46.70
70184;DHT22;57554;51.546;6.776;2022-08-21T08:43:37;22.90;47.30
70184;DHT22;57554;51.546;6.776;2022-08-21T08:46:09;23.00;47.30
70184;DHT22;57554;51.546;6.776;2022-08-21T08:48:58;23.10;47.20
70184;DHT22;57554;51.546;6.776;2022-08-21T08:51:39;23.20;46.80
70184;DHT22;57554;51.546;6.776;2022-08-21T08:54:19;23.30;47.20
70184;DHT22;57554;51.546;6.776;2022-08-21T08:56:46;23.60;46.20
70184;DHT22;57554;51.546;6.776;2022-08-21T08:59:20;23.80;46.40
70184;DHT22;57554;51.546;6.776;2022-08-21T09:01:48;24.10;45.80
70184;DHT22;57554;51.546;6.776;2022-08-21T09:04:22;24.20;45.00
70184;DHT22;57554;51.546;6.776;2022-08-21T09:12:56;24.40;44.50
70184;DHT22;57554;51.546;6.776;2022-08-21T09:26:43;24.70;44.50
70184;DHT22;57554;51.546;6.776;2022-08-21T09:29:12;25.00;43.90
70184;DHT22;57554;51.546;6.776;2022-08-21T09:31:38;25.00;43.60
70184;DHT22;57554;51.546;6.776;2022-08-21T09:34:10;25.00;43.40
70184;DHT22;57554;51.546;6.776;2022-08-21T09:36:49;25.20;43.00
70184;DHT22;57554;51.546;6.776;2022-08-21T09:39:27;25.30;42.80
70184;DHT22;57554;51.546;6.776;2022-08-21T09:42:11;25.40;42.80
70184;DHT22;57554;51.546;6.776;2022-08-21T09:44:46;25.50;42.30
70184;DHT22;57554;51.546;6.776;2022-08-21T09:47:12;25.50;42.00
70184;DHT22;57554;51.546;6.776;2022-08-21T09:49:40;25.40;42.20
70184;DHT22;57554;51.546;6.776;2022-08-21T09:52:19;25.40;42.40
70184;DHT22;57554;51.546;6.776;2022-08-21T09:54:50;25.50;42.50
70184;DHT22;57554;51.546;6.776;2022-08-21T09:57:19;25.60;42.10
70184;DHT22;57554;51.546;6.776;2022-08-21T10:00:28;25.90;42.40
70184;DHT22;57554;51.546;6.776;2022-08-21T10:03:18;26.00;41.80
70184;DHT22;57554;51.546;6.776;2022-08-21T10:05:59;25.90;41.60
70184;DHT22;57554;51.546;6.776;2022-08-21T10:08:26;25.80;41.60
70184;DHT22;57554;51.546;6.776;2022-08-21T10:10:56;25.80;41.00
70184;DHT22;57554;51.546;6.776;2022-08-21T10:19:15;26.10;40.80
70184;DHT22;57554;51.546;6.776;2022-08-21T10:24:18;26.40;40.80
70184;DHT22;57554;51.546;6.776;2022-08-21T10:32:27;27.30;39.20
70184;DHT22;57554;51.546;6.776;2022-08-21T10:38:38;27.50;38.50
70184;DHT22;57554;51.546;6.776;2022-08-21T10:44:08;27.20;38.70
70184;DHT22;57554;51.546;6.776;2022-08-21T10:56:01;27.10;38.30
70184;DHT22;57554;51.546;6.776;2022-08-21T10:58:33;26.90;38.70
70184;DHT22;57554;51.546;6.776;2022-08-21T11:01:22;26.90;38.60
70184;DHT22;57554;51.546;6.776;2022-08-21T11:04:04;26.70;39.10
70184;DHT22;57554;51.546;6.776;2022-08-21T11:06:32;26.60;39.10
70184;DHT22;57554;51.546;6.776;2022-08-21T11:09:04;26.50;39.20
70184;DHT22;57554;51.546;6.776;2022-08-21T11:11:44;26.50;39.30
70184;DHT22;57554;51.546;6.776;2022-08-21T11:14:21;26.60;39.40
70184;DHT22;57554;51.546;6.776;2022-08-21T11:16:57;26.60;38.70
70184;DHT22;57554;51.546;6.776;2022-08-21T11:24:54;26.60;37.90
70184;DHT22;57554;51.546;6.776;2022-08-21T11:30:10;26.60;37.70
70184;DHT22;57554;51.546;6.776;2022-08-21T11:41:16;26.80;37.60
70184;DHT22;57554;51.546;6.776;2022-08-21T11:43:45;26.90;35.90
70184;DHT22;57554;51.546;6.776;2022-08-21T11:48:48;27.10;35.80
70184;DHT22;57554;51.546;6.776;2022-08-21T11:51:21;27.20;37.00
70184;DHT22;57554;51.546;6.776;2022-08-21T11:54:03;27.40;35.30
70184;DHT22;57554;51.546;6.776;2022-08-21T11:56:36;27.40;35.60
70184;DHT22;57554;51.546;6.776;2022-08-21T11:59:11;27.40;36.20
70184;DHT22;57554;51.546;6.776;2022-08-21T12:01:40;27.40;36.40
70184;DHT22;57554;51.546;6.776;2022-08-21T12:04:31;27.40;36.70
70184;DHT22;57554;51.546;6.776;2022-08-21T12:07:17;27.40;36.80
70184;DHT22;57554;51.546;6.776;2022-08-21T12:09:54;27.50;36.70
70184;DHT22;57554;51.546;6.776;2022-08-21T12:12:30;27.60;37.10
70184;DHT22;57554;51.546;6.776;2022-08-21T12:15:26;27.80;37.20
70184;DHT22;57554;51.546;6.776;2022-08-21T12:18:18;27.90;37.10
70184;DHT22;57554;51.546;6.776;2022-08-21T12:20:58;28.10;35.70
70184;DHT22;57554;51.546;6.776;2022-08-21T12:24:01;28.10;35.00
70184;DHT22;57554;51.546;6.776;2022-08-21T12:26:38;28.00;34.20
70184;DHT22;57554;51.546;6.776;2022-08-21T12:29:30;27.90;34.50
70184;DHT22;57554;51.546;6.776;2022-08-21T12:32:42;27.80;35.20
70184;DHT22;57554;51.546;6.776;2022-08-21T12:35:15;27.80;34.80
70184;DHT22;57554;51.546;6.776;2022-08-21T12:37:50;27.80;34.70
70184;DHT22;57554;51.546;6.776;2022-08-21T12:40:23;27.80;35.10
70184;DHT22;57554;51.546;6.776;2022-08-21T12:42:53;27.80;35.20
70184;DHT22;57554;51.546;6.776;2022-08-21T12:45:26;27.90;34.90
70184;DHT22;57554;51.546;6.776;2022-08-21T12:51:15;27.90;35.00
70184;DHT22;57554;51.546;6.776;2022-08-21T12:53:45;27.90;35.20
70184;DHT22;57554;51.546;6.776;2022-08-21T12:56:16;27.90;35.40
70184;DHT22;57554;51.546;6.776;2022-08-21T12:58:50;27.90;35.60
70184;DHT22;57554;51.546;6.776;2022-08-21T13:01:33;28.00;36.10
70184;DHT22;57554;51.546;6.776;2022-08-21T13:04:15;28.10;35.80
70184;DHT22;57554;51.546;6.776;2022-08-21T13:06:45;28.10;34.70
70184;DHT22;57554;51.546;6.776;2022-08-21T13:09:13;28.10;35.60
70184;DHT22;57554;51.546;6.776;2022-08-21T13:11:41;28.20;34.90
70184;DHT22;57554;51.546;6.776;2022-08-21T13:14:20;28.20;35.10
70184;DHT22;57554;51.546;6.776;2022-08-21T13:16:53;28.10;35.20
70184;DHT22;57554;51.546;6.776;2022-08-21T13:19:19;27.90;35.20
70184;DHT22;57554;51.546;6.776;2022-08-21T13:21:45;27.60;35.30
70184;DHT22;57554;51.546;6.776;2022-08-21T13:24:20;27.40;36.00
70184;DHT22;57554;51.546;6.776;2022-08-21T13:26:47;27.40;36.60
70184;DHT22;57554;51.546;6.776;2022-08-21T13:29:16;27.60;36.40
70184;DHT22;57554;51.546;6.776;2022-08-21T13:31:51;27.70;36.20
70184;DHT22;57554;51.546;6.776;2022-08-21T13:34:20;27.70;35.80
70184;DHT22;57554;51.546;6.776;2022-08-21T13:36:47;27.70;35.60
70184;DHT22;57554;51.546;6.776;2022-08-21T13:39:16;27.70;35.50
70184;DHT22;57554;51.546;6.776;2022-08-21T13:41:45;27.50;35.60
70184;DHT22;57554;51.546;6.776;2022-08-21T13:44:24;27.30;35.50
70184;DHT22;57554;51.546;6.776;2022-08-21T13:46:57;27.10;36.10
70184;DHT22;57554;51.546;6.776;2022-08-21T13:49:32;27.00;36.10
70184;DHT22;57554;51.546;6.776;2022-08-21T13:51:58;27.00;36.00
70184;DHT22;57554;51.546;6.776;2022-08-21T13:54:34;27.00;36.00
70184;DHT22;57554;51.546;6.776;2022-08-21T13:57:00;27.00;35.70
70184;DHT22;57554;51.546;6.776;2022-08-21T13:59:30;27.00;35.30
70184;DHT22;57554;51.546;6.776;2022-08-21T14:05:01;26.70;36.10
70184;DHT22;57554;51.546;6.776;2022-08-21T14:07:40;26.60;36.70
70184;DHT22;57554;51.546;6.776;2022-08-21T14:10:18;26.70;36.60
70184;DHT22;57554;51.546;6.776;2022-08-21T14:13:02;26.70;36.50
70184;DHT22;57554;51.546;6.776;2022-08-21T14:15:31;26.80;36.00
70184;DHT22;57554;51.546;6.776;2022-08-21T14:18:09;26.70;36.50
70184;DHT22;57554;51.546;6.776;2022-08-21T14:20:38;26.80;37.20
70184;DHT22;57554;51.546;6.776;2022-08-21T14:23:03;26.90;37.00
70184;DHT22;57554;51.546;6.776;2022-08-21T14:25:41;27.00;36.90
70184;DHT22;57554;51.546;6.776;2022-08-21T14:28:28;27.00;37.00
70184;DHT22;57554;51.546;6.776;2022-08-21T14:30:56;27.00;37.20
70184;DHT22;57554;51.546;6.776;2022-08-21T14:33:29;27.20;37.20
70184;DHT22;57554;51.546;6.776;2022-08-21T14:35:56;27.30;36.40
70184;DHT22;57554;51.546;6.776;2022-08-21T14:38:25;27.40;35.80
70184;DHT22;57554;51.546;6.776;2022-08-21T14:40:57;27.50;35.70
70184;DHT22;57554;51.546;6.776;2022-08-21T14:43:23;27.60;35.60
70184;DHT22;57554;51.546;6.776;2022-08-21T14:45:50;27.60;35.70
70184;DHT22;57554;51.546;6.776;2022-08-21T14:48:16;27.60;35.40
70184;DHT22;57554;51.546;6.776;2022-08-21T14:50:41;27.60;35.60
70184;DHT22;57554;51.546;6.776;2022-08-21T14:53:08;27.60;35.50
70184;DHT22;57554;51.546;6.776;2022-08-21T14:55:34;27.60;35.50
70184;DHT22;57554;51.546;6.776;2022-08-21T14:58:20;27.60;34.90
70184;DHT22;57554;51.546;6.776;2022-08-21T15:00:45;27.60;35.00
70184;DHT22;57554;51.546;6.776;2022-08-21T15:03:11;27.70;35.20
70184;DHT22;57554;51.546;6.776;2022-08-21T15:05:37;27.80;36.00
70184;DHT22;57554;51.546;6.776;2022-08-21T15:08:02;28.00;35.50
70184;DHT22;57554;51.546;6.776;2022-08-21T15:10:30;28.10;34.30
70184;DHT22;57554;51.546;6.776;2022-08-21T15:12:57;28.10;34.10
70184;DHT22;57554;51.546;6.776;2022-08-21T15:15:23;28.10;33.60
70184;DHT22;57554;51.546;6.776;2022-08-21T15:17:49;27.90;33.10
70184;DHT22;57554;51.546;6.776;2022-08-21T15:20:15;27.80;33.20
70184;DHT22;57554;51.546;6.776;2022-08-21T15:22:40;27.50;33.50
70184;DHT22;57554;51.546;6.776;2022-08-21T15:25:06;27.50;34.00
70184;DHT22;57554;51.546;6.776;2022-08-21T15:27:32;27.50;34.40
70184;DHT22;57554;51.546;6.776;2022-08-21T15:29:57;27.60;34.30
70184;DHT22;57554;51.546;6.776;2022-08-21T15:32:27;27.70;35.00
70184;DHT22;57554;51.546;6.776;2022-08-21T15:34:55;27.90;34.30
70184;DHT22;57554;51.546;6.776;2022-08-21T15:37:22;28.00;34.90
70184;DHT22;57554;51.546;6.776;2022-08-21T15:39:50;28.10;34.00
70184;DHT22;57554;51.546;6.776;2022-08-21T15:42:16;28.10;33.90
70184;DHT22;57554;51.546;6.776;2022-08-21T15:44:42;28.20;33.40
70184;DHT22;57554;51.546;6.776;2022-08-21T15:47:14;28.20;33.10
70184;DHT22;57554;51.546;6.776;2022-08-21T15:49:41;28.20;32.20
70184;DHT22;57554;51.546;6.776;2022-08-21T15:52:17;28.10;32.30
70184;DHT22;57554;51.546;6.776;2022-08-21T15:54:43;28.00;32.60
70184;DHT22;57554;51.546;6.776;2022-08-21T15:57:13;27.90;32.70
70184;DHT22;57554;51.546;6.776;2022-08-21T15:59:42;27.90;33.40
70184;DHT22;57554;51.546;6.776;2022-08-21T16:02:12;27.90;33.30
70184;DHT22;57554;51.546;6.776;2022-08-21T16:04:38;28.00;33.30
70184;DHT22;57554;51.546;6.776;2022-08-21T16:07:04;28.10;33.70
70184;DHT22;57554;51.546;6.776;2022-08-21T16:09:29;28.20;34.00
70184;DHT22;57554;51.546;6.776;2022-08-21T16:11:55;28.30;34.20
70184;DHT22;57554;51.546;6.776;2022-08-21T16:14:21;28.30;33.40
70184;DHT22;57554;51.546;6.776;2022-08-21T16:16:46;28.30;34.00
70184;DHT22;57554;51.546;6.776;2022-08-21T16:19:12;28.30;34.30
70184;DHT22;57554;51.546;6.776;2022-08-21T16:21:38;28.30;34.00
70184;DHT22;57554;51.546;6.776;2022-08-21T16:24:04;28.30;33.50
70184;DHT22;57554;51.546;6.776;2022-08-21T16:26:30;28.30;33.50
70184;DHT22;57554;51.546;6.776;2022-08-21T16:28:59;28.30;33.70
70184;DHT22;57554;51.546;6.776;2022-08-21T16:31:25;28.30;33.90
70184;DHT22;57554;51.546;6.776;2022-08-21T16:33:53;28.30;33.80
70184;DHT22;57554;51.546;6.776;2022-08-21T16:36:19;28.20;33.30
70184;DHT22;57554;51.546;6.776;2022-08-21T16:38:46;28.00;32.80
70184;DHT22;57554;51.546;6.776;2022-08-21T16:41:16;27.80;33.30
70184;DHT22;57554;51.546;6.776;2022-08-21T16:43:44;27.60;33.10
70184;DHT22;57554;51.546;6.776;2022-08-21T16:46:13;27.30;33.60
70184;DHT22;57554;51.546;6.776;2022-08-21T16:48:40;27.20;33.80
70184;DHT22;57554;51.546;6.776;2022-08-21T16:51:06;27.00;34.10
70184;DHT22;57554;51.546;6.776;2022-08-21T16:53:32;26.90;34.60
70184;DHT22;57554;51.546;6.776;2022-08-21T16:55:58;26.80;34.60
70184;DHT22;57554;51.546;6.776;2022-08-21T16:58:31;26.90;34.90